Norene, Tennessee
Current Conditions -  °F | °C
As of 2:53 PM on Wednesday 26 Nov 2014 (Local Time) from KBNA Reporting Station
Overcast Overcast  
Wind Chill: 47°   Ceiling: 11000
Heat Index: 49°   Visibility: 10mi
Dew Point: 23°   Wind: 6mph
Humidity: 36%   Direction: 160°SSE
Pressure: 30.03"   Gusts: NA
Location:  36.06°N, 86.24°W
Report Text: KBNA 262053Z 16005KT 10SM BKN110 OVC250 09/M05 A3003 RMK AO2 SLP170 T00941050 56023
Loading
Personal Weather Stations






























Interactive Weather Map New forecast layout! Learn more

10-Day Weather Forecast

Advertisements
Track Severe Weather on mobile